createdAt,value
2019-05-11T00:03:32.581Z,12.00
2019-05-11T00:06:02.562Z,12.00
2019-05-11T00:08:32.527Z,11.90
2019-05-11T00:13:32.877Z,12.10
2019-05-11T00:16:02.951Z,12.10
2019-05-11T00:18:32.944Z,12.10
2019-05-11T00:21:02.902Z,11.40
2019-05-11T00:23:32.849Z,12.00
2019-05-11T00:26:03.031Z,11.90
2019-05-11T00:28:33.078Z,12.20
2019-05-11T00:31:03.018Z,11.90
2019-05-11T00:33:33.119Z,11.80
2019-05-11T00:36:03.073Z,11.80
2019-05-11T00:38:33.024Z,11.80
2019-05-11T00:41:02.989Z,11.90
2019-05-11T00:43:33.163Z,11.80
2019-05-11T00:46:03.193Z,11.80
2019-05-11T00:48:33.275Z,11.90
2019-05-11T00:51:03.298Z,11.90
2019-05-11T00:53:33.503Z,11.80
2019-05-11T00:56:03.596Z,11.80
2019-05-11T00:58:33.521Z,11.90
2019-05-11T01:01:03.557Z,11.90
2019-05-11T01:03:33.517Z,11.70
2019-05-11T01:06:03.501Z,11.70
2019-05-11T01:08:33.467Z,11.70
2019-05-11T01:11:03.468Z,11.70
2019-05-11T01:13:33.484Z,11.60
2019-05-11T01:16:03.523Z,11.60
2019-05-11T01:18:33.531Z,11.60
2019-05-11T01:21:03.537Z,11.60
2019-05-11T01:26:03.159Z,11.40
2019-05-11T01:28:33.186Z,11.40
2019-05-11T01:31:03.203Z,11.40
2019-05-11T01:33:33.181Z,11.50
2019-05-11T01:36:03.253Z,11.40
2019-05-11T01:38:33.207Z,11.40
2019-05-11T01:41:03.133Z,11.30
2019-05-11T01:43:33.100Z,11.00
2019-05-11T01:46:03.039Z,11.30
2019-05-11T01:48:33.055Z,11.20
2019-05-11T01:51:03.015Z,11.40
2019-05-11T01:53:32.968Z,11.30
2019-05-11T01:56:03.068Z,11.30
2019-05-11T01:58:33.107Z,11.30
2019-05-11T02:01:03.051Z,11.30
2019-05-11T02:03:34.054Z,11.30
2019-05-11T02:06:04.164Z,11.30
2019-05-11T02:08:34.227Z,11.30
2019-05-11T02:11:15.501Z,11.30
2019-05-11T02:13:36.091Z,11.40
2019-05-11T02:16:06.069Z,11.30
2019-05-11T02:18:36.156Z,12.10
2019-05-11T02:21:06.182Z,11.40
2019-05-11T02:23:36.230Z,11.50
2019-05-11T02:26:06.247Z,12.70
2019-05-11T02:28:36.324Z,11.50
2019-05-11T02:31:06.302Z,11.50
2019-05-11T02:33:36.252Z,11.60
2019-05-11T02:36:06.191Z,11.50
2019-05-11T02:38:36.254Z,11.50
2019-05-11T02:41:06.374Z,11.40
2019-05-11T02:43:36.411Z,11.40
2019-05-11T02:46:06.427Z,11.40
2019-05-11T02:48:36.404Z,11.40
2019-05-11T02:51:07.318Z,11.40
2019-05-11T02:53:37.726Z,11.30
2019-05-11T02:56:07.711Z,11.30
2019-05-11T02:58:37.698Z,11.50
2019-05-11T03:01:07.643Z,11.30
2019-05-11T03:03:37.976Z,11.50
2019-05-11T03:06:07.927Z,11.50
2019-05-11T03:08:37.913Z,11.50
2019-05-11T03:11:07.917Z,11.50
2019-05-11T03:13:37.975Z,11.70
2019-05-11T03:16:08.040Z,11.90
2019-05-11T03:18:38.060Z,11.90
2019-05-11T03:21:08.111Z,11.80
2019-05-11T03:23:38.073Z,11.80
2019-05-11T03:26:08.123Z,11.80
2019-05-11T03:28:38.150Z,11.70
2019-05-11T03:31:08.204Z,11.60
2019-05-11T03:33:38.205Z,11.70
2019-05-11T03:36:08.299Z,11.70
2019-05-11T03:38:38.336Z,11.80
2019-05-11T03:41:08.352Z,11.80
2019-05-11T03:43:38.487Z,11.60
2019-05-11T03:46:08.525Z,11.70
2019-05-11T03:48:38.568Z,11.70
2019-05-11T03:51:08.521Z,11.80
2019-05-11T03:53:39.540Z,11.80
2019-05-11T03:56:09.641Z,11.90
2019-05-11T03:58:40.022Z,11.90
2019-05-11T04:01:09.979Z,11.80
2019-05-11T04:03:40.005Z,11.90
2019-05-11T04:06:10.096Z,11.80
2019-05-11T04:08:40.159Z,11.90
2019-05-11T04:11:10.184Z,11.80
2019-05-11T04:13:40.264Z,12.00
2019-05-11T04:16:10.371Z,12.00
2019-05-11T04:18:40.402Z,12.10
2019-05-11T04:21:10.422Z,12.10
2019-05-11T04:23:40.643Z,12.30
2019-05-11T04:26:10.717Z,12.20
2019-05-11T04:28:40.744Z,12.30
2019-05-11T04:31:10.774Z,12.20
2019-05-11T04:33:40.787Z,12.10
2019-05-11T04:36:10.767Z,12.20
2019-05-11T04:38:40.791Z,12.20
2019-05-11T04:41:10.937Z,12.10
2019-05-11T04:43:41.040Z,12.20
2019-05-11T04:46:13.809Z,12.30
2019-05-11T04:48:43.738Z,12.50
2019-05-11T04:51:13.799Z,12.30
2019-05-11T04:53:43.832Z,12.30
2019-05-11T04:56:14.800Z,12.10
2019-05-11T04:58:44.761Z,12.30
2019-05-11T05:01:14.799Z,12.20
2019-05-11T05:03:47.517Z,12.30
2019-05-11T05:06:24.472Z,12.60
2019-05-11T05:08:48.172Z,13.00
2019-05-11T05:11:18.184Z,13.00
2019-05-11T05:13:48.184Z,12.80
2019-05-11T05:16:18.150Z,12.90
2019-05-11T05:18:48.574Z,12.90
2019-05-11T05:21:18.611Z,12.80
2019-05-11T05:23:48.567Z,12.90
2019-05-11T05:26:18.535Z,12.60
2019-05-11T05:28:48.520Z,13.20
2019-05-11T05:31:18.575Z,13.40
2019-05-11T05:33:48.584Z,13.30
2019-05-11T05:36:18.650Z,13.30
2019-05-11T05:38:48.634Z,13.50
2019-05-11T05:41:19.004Z,13.40
2019-05-11T05:43:49.097Z,13.50
2019-05-11T05:46:19.157Z,13.90
2019-05-11T05:48:49.186Z,14.30
2019-05-11T05:51:19.251Z,14.10
2019-05-11T05:53:49.248Z,14.10
2019-05-11T05:56:19.207Z,13.90
2019-05-11T05:58:49.257Z,13.70
2019-05-11T06:01:19.247Z,13.60
2019-05-11T06:03:49.298Z,13.50
2019-05-11T06:06:19.323Z,13.60
2019-05-11T06:08:49.376Z,13.80
2019-05-11T06:11:19.463Z,13.80
2019-05-11T06:13:49.622Z,13.80
2019-05-11T06:16:19.655Z,14.10
2019-05-11T06:18:49.624Z,14.20
2019-05-11T06:21:19.559Z,14.30
2019-05-11T06:23:51.629Z,14.50
2019-05-11T06:26:21.996Z,14.70
2019-05-11T06:28:51.951Z,14.80
2019-05-11T06:31:21.913Z,15.00
2019-05-11T06:33:52.293Z,14.70
2019-05-11T06:36:22.338Z,14.80
2019-05-11T06:38:52.389Z,15.00
2019-05-11T06:41:22.508Z,14.70
2019-05-11T06:44:01.209Z,15.00
2019-05-11T06:46:24.187Z,15.00
2019-05-11T06:48:55.241Z,15.10
2019-05-11T06:51:25.300Z,14.70
2019-05-11T06:53:55.284Z,14.90
2019-05-11T06:56:25.238Z,14.60
2019-05-11T06:58:55.250Z,14.90
2019-05-11T07:01:25.285Z,15.40
2019-05-11T07:03:55.303Z,15.40
2019-05-11T07:06:28.361Z,15.50
2019-05-11T07:08:57.112Z,15.20
2019-05-11T07:11:27.094Z,15.40
2019-05-11T07:13:57.116Z,15.70
2019-05-11T07:16:29.026Z,16.00
2019-05-11T07:18:59.045Z,16.00
2019-05-11T07:21:29.074Z,15.80
2019-05-11T07:23:59.105Z,15.90
2019-05-11T07:26:29.414Z,16.00
2019-05-11T07:28:59.369Z,16.20
2019-05-11T07:31:30.510Z,16.20
2019-05-11T07:34:01.437Z,16.00
2019-05-11T07:36:31.592Z,16.00
2019-05-11T07:39:01.520Z,15.90
2019-05-11T07:41:31.550Z,15.90
2019-05-11T07:44:01.503Z,15.80
2019-05-11T07:46:31.536Z,15.60
2019-05-11T07:49:01.546Z,16.10
2019-05-11T07:51:31.727Z,16.50
2019-05-11T07:54:01.782Z,16.50
2019-05-11T07:56:31.782Z,16.20
2019-05-11T07:59:01.711Z,16.10
2019-05-11T08:01:31.648Z,16.40
2019-05-11T08:04:01.602Z,17.00
2019-05-11T08:06:31.603Z,17.00
2019-05-11T08:09:01.653Z,16.70
2019-05-11T08:11:32.744Z,17.10
2019-05-11T08:14:02.961Z,16.70
2019-05-11T08:16:32.985Z,17.10
2019-05-11T08:19:06.800Z,17.30
2019-05-11T08:21:34.632Z,17.00
2019-05-11T08:24:05.117Z,17.30
2019-05-11T08:26:35.183Z,17.50
2019-05-11T08:29:05.134Z,17.90
2019-05-11T08:31:35.110Z,18.10
2019-05-11T08:34:05.145Z,17.50
2019-05-11T08:36:35.127Z,18.00
2019-05-11T08:39:07.757Z,18.50
2019-05-11T08:41:38.428Z,18.30
2019-05-11T08:44:09.060Z,18.10
2019-05-11T08:46:40.104Z,18.40
2019-05-11T08:49:10.302Z,18.00
2019-05-11T08:51:40.223Z,18.10
2019-05-11T08:54:10.197Z,18.20
2019-05-11T08:56:40.115Z,18.80
2019-05-11T08:59:10.136Z,18.40
2019-05-11T09:01:41.094Z,18.00
2019-05-11T09:04:11.114Z,18.50
2019-05-11T09:06:41.106Z,18.50
2019-05-11T09:09:13.174Z,18.70
2019-05-11T09:11:43.002Z,18.80
2019-05-11T09:14:13.121Z,18.90
2019-05-11T09:16:43.198Z,19.20
2019-05-11T09:19:13.141Z,19.10
2019-05-11T09:21:43.113Z,19.40
2019-05-11T09:24:13.108Z,19.90
2019-05-11T09:26:43.056Z,19.80
2019-05-11T09:29:12.955Z,20.10
2019-05-11T09:31:42.917Z,19.70
2019-05-11T09:34:12.531Z,20.00
2019-05-11T09:36:42.530Z,20.50
2019-05-11T09:39:14.197Z,20.20
2019-05-11T09:41:44.111Z,20.20
2019-05-11T09:44:14.036Z,20.10
2019-05-11T09:46:44.029Z,20.00
2019-05-11T09:49:14.081Z,19.90
2019-05-11T09:51:44.413Z,19.40
2019-05-11T09:54:14.438Z,18.60
2019-05-11T09:56:44.506Z,18.80
2019-05-11T09:59:14.412Z,19.10
2019-05-11T10:01:44.357Z,19.60
2019-05-11T10:04:14.462Z,19.80
2019-05-11T10:06:44.355Z,19.70
2019-05-11T10:09:14.327Z,19.70
2019-05-11T10:11:44.364Z,19.80
2019-05-11T10:14:14.274Z,21.50
2019-05-11T10:16:46.139Z,21.10
2019-05-11T10:19:17.798Z,22.10
2019-05-11T10:21:48.677Z,22.00
2019-05-11T10:24:18.677Z,21.40
2019-05-11T10:26:48.843Z,21.40
2019-05-11T10:29:18.970Z,21.60
2019-05-11T10:31:48.647Z,22.30
2019-05-11T10:34:18.589Z,22.80
2019-05-11T10:36:48.754Z,24.60
2019-05-11T10:39:18.896Z,23.90
2019-05-11T10:41:48.698Z,24.40
2019-05-11T10:44:20.030Z,24.60
2019-05-11T10:46:49.709Z,24.80
2019-05-11T10:49:19.391Z,24.70
2019-05-11T10:51:49.015Z,25.10
2019-05-11T10:54:18.928Z,25.60
2019-05-11T10:56:48.605Z,25.40
2019-05-11T10:59:18.771Z,24.80
2019-05-11T11:01:48.803Z,23.70
2019-05-11T11:04:20.134Z,24.10
2019-05-11T11:06:49.773Z,24.70
2019-05-11T11:09:19.637Z,23.20
2019-05-11T11:11:49.373Z,24.30
2019-05-11T11:14:19.071Z,23.90
2019-05-11T11:16:48.845Z,21.90
2019-05-11T11:19:20.114Z,23.40
2019-05-11T11:21:49.849Z,24.20
2019-05-11T11:24:19.604Z,24.00
2019-05-11T11:26:49.286Z,23.40
2019-05-11T11:29:18.933Z,25.10
2019-05-11T11:31:48.562Z,25.80
2019-05-11T11:34:18.961Z,27.00
2019-05-11T11:36:48.780Z,26.80
2019-05-11T11:39:18.823Z,24.60
2019-05-11T11:41:48.729Z,23.70
2019-05-11T11:44:18.634Z,25.00
2019-05-11T11:46:54.579Z,26.90
2019-05-11T11:49:19.784Z,28.10
2019-05-11T11:51:49.551Z,29.20
2019-05-11T11:54:19.192Z,29.70
2019-05-11T11:56:49.030Z,29.20
2019-05-11T11:59:21.656Z,29.80
2019-05-11T12:01:51.347Z,30.40
2019-05-11T12:04:21.051Z,30.00
2019-05-11T12:06:50.753Z,29.50
2019-05-11T12:09:20.469Z,30.40
2019-05-11T12:11:52.502Z,31.10
2019-05-11T12:14:22.193Z,27.40
2019-05-11T12:17:06.764Z,26.50
2019-05-11T12:19:24.030Z,27.10
2019-05-11T12:21:53.663Z,29.20
2019-05-11T12:24:23.305Z,30.20
2019-05-11T12:26:52.999Z,30.50
2019-05-11T12:29:22.702Z,31.70
2019-05-11T12:31:52.369Z,31.40
2019-05-11T12:34:22.987Z,30.20
2019-05-11T12:36:52.631Z,27.20
2019-05-11T12:39:22.261Z,26.50
2019-05-11T12:41:52.899Z,26.50
2019-05-11T12:44:22.658Z,26.70
2019-05-11T12:46:52.290Z,28.20
2019-05-11T12:49:21.958Z,27.80
2019-05-11T12:51:51.665Z,28.20
2019-05-11T12:54:21.299Z,30.00
2019-05-11T12:56:50.959Z,29.40
2019-05-11T12:59:20.618Z,27.70
2019-05-11T13:01:50.336Z,27.10
2019-05-11T13:04:20.208Z,28.50
2019-05-11T13:06:49.937Z,30.30
2019-05-11T13:09:19.635Z,30.50
2019-05-11T13:11:49.262Z,27.40
2019-05-11T13:14:18.920Z,26.50
2019-05-11T13:16:48.599Z,27.60
2019-05-11T13:19:20.692Z,26.90
2019-05-11T13:21:50.455Z,26.90
2019-05-11T13:24:20.099Z,28.70
2019-05-11T13:26:49.760Z,28.50
2019-05-11T13:29:19.384Z,26.80
2019-05-11T13:31:49.028Z,27.10
2019-05-11T13:34:18.728Z,28.30
2019-05-11T13:36:49.055Z,31.50
2019-05-11T13:39:20.224Z,34.40
2019-05-11T13:41:49.866Z,33.10
2019-05-11T13:44:19.531Z,34.20
2019-05-11T13:46:49.208Z,35.40
2019-05-11T13:49:19.132Z,36.50
2019-05-11T13:51:48.776Z,36.10
2019-05-11T13:54:18.705Z,36.80
2019-05-11T13:56:48.572Z,37.40
2019-05-11T13:59:18.905Z,36.60
2019-05-11T14:01:48.720Z,33.50
2019-05-11T14:04:18.599Z,34.00
2019-05-11T14:06:49.386Z,34.20
2019-05-11T14:09:20.023Z,34.90
2019-05-11T14:11:49.714Z,37.80
2019-05-11T14:14:19.427Z,39.50
2019-05-11T14:16:49.272Z,38.70
2019-05-11T14:19:18.942Z,35.30
2019-05-11T14:21:49.075Z,30.30
2019-05-11T14:24:18.853Z,31.20
2019-05-11T14:26:48.986Z,33.10
2019-05-11T14:29:18.788Z,35.20
2019-05-11T14:31:49.460Z,33.40
2019-05-11T14:34:19.199Z,32.00
2019-05-11T14:36:48.912Z,31.60
2019-05-11T14:39:19.116Z,32.30
2019-05-11T14:41:48.931Z,33.20
2019-05-11T14:44:18.677Z,29.10
2019-05-11T14:46:48.403Z,28.90
2019-05-11T14:49:18.515Z,29.70
2019-05-11T14:51:48.711Z,31.00
2019-05-11T14:54:18.891Z,29.70
2019-05-11T14:56:48.776Z,28.50
2019-05-11T14:59:18.631Z,28.10
2019-05-11T15:01:49.008Z,27.60
2019-05-11T15:04:19.586Z,26.90
2019-05-11T15:06:49.308Z,26.80
2019-05-11T15:09:19.004Z,26.90
2019-05-11T15:11:48.693Z,27.10
2019-05-11T15:14:21.488Z,26.40
2019-05-11T15:16:49.930Z,24.60
2019-05-11T15:19:19.625Z,24.20
2019-05-11T15:21:49.336Z,23.70
2019-05-11T15:24:19.523Z,24.20
2019-05-11T15:26:49.222Z,24.70
2019-05-11T15:29:21.840Z,24.80
2019-05-11T15:31:51.486Z,24.90
2019-05-11T15:36:50.515Z,24.50
2019-05-11T15:41:49.470Z,22.90
2019-05-11T15:44:19.103Z,23.70
2019-05-11T15:46:48.743Z,23.60
2019-05-11T15:49:18.400Z,23.40
2019-05-11T15:51:49.083Z,22.80
2019-05-11T15:54:18.816Z,23.20
2019-05-11T15:56:48.555Z,23.00
2019-05-11T15:59:18.193Z,23.10
2019-05-11T16:01:48.883Z,23.80
2019-05-11T16:04:18.631Z,23.70
2019-05-11T16:06:48.363Z,20.90
2019-05-11T16:09:18.534Z,23.70
2019-05-11T16:11:48.333Z,24.00
2019-05-11T16:14:17.984Z,24.90
2019-05-11T16:16:48.135Z,25.00
2019-05-11T16:19:19.244Z,24.90
2019-05-11T16:21:49.067Z,24.90
2019-05-11T16:24:18.677Z,25.70
2019-05-11T16:26:49.636Z,26.50
2019-05-11T16:29:19.390Z,26.50
2019-05-11T16:34:18.498Z,27.90
2019-05-11T16:36:48.310Z,26.50
2019-05-11T16:39:18.639Z,24.70
2019-05-11T16:41:48.783Z,24.60
2019-05-11T16:44:18.667Z,23.50
2019-05-11T16:46:50.968Z,23.30
2019-05-11T16:49:28.573Z,22.20
2019-05-11T16:51:54.180Z,22.60
2019-05-11T16:54:23.806Z,22.10
2019-05-11T16:56:53.531Z,22.20
2019-05-11T16:59:23.190Z,22.00
2019-05-11T17:01:52.830Z,21.80
2019-05-11T17:04:22.549Z,21.70
2019-05-11T17:06:52.194Z,21.60
2019-05-11T17:09:21.970Z,21.50
2019-05-11T17:11:51.575Z,21.50
2019-05-11T17:14:21.239Z,21.50
2019-05-11T17:16:50.906Z,21.50
2019-05-11T17:19:20.538Z,21.40
2019-05-11T17:21:50.196Z,21.30
2019-05-11T17:24:19.820Z,21.20
2019-05-11T17:26:49.441Z,21.10
2019-05-11T17:29:21.967Z,20.90
2019-05-11T17:31:51.616Z,20.80
2019-05-11T17:34:21.266Z,20.70
2019-05-11T17:36:51.002Z,20.50
2019-05-11T17:39:20.945Z,20.30
2019-05-11T17:41:50.754Z,20.20
2019-05-11T17:44:20.704Z,20.10
2019-05-11T17:46:50.685Z,19.90
2019-05-11T17:49:20.496Z,19.80
2019-05-11T17:51:52.024Z,19.70
2019-05-11T17:54:21.489Z,19.50
2019-05-11T17:56:51.242Z,19.30
2019-05-11T17:59:21.273Z,19.10
2019-05-11T18:01:54.017Z,19.00
2019-05-11T18:04:25.754Z,18.90
2019-05-11T18:06:55.911Z,18.80
2019-05-11T18:09:25.957Z,18.70
2019-05-11T18:11:55.899Z,18.60
2019-05-11T18:14:28.041Z,18.50
2019-05-11T18:16:58.987Z,18.50
2019-05-11T18:19:29.155Z,18.40
2019-05-11T18:21:59.442Z,18.30
2019-05-11T18:24:29.495Z,18.20
2019-05-11T18:26:59.674Z,18.00
2019-05-11T18:29:29.889Z,18.00
2019-05-11T18:31:59.857Z,17.90
2019-05-11T18:34:29.927Z,17.70
2019-05-11T18:36:59.944Z,17.70
2019-05-11T18:39:30.938Z,17.70
2019-05-11T18:42:01.135Z,17.70
2019-05-11T18:44:31.153Z,17.60
2019-05-11T18:47:01.157Z,17.60
2019-05-11T18:49:31.185Z,17.60
2019-05-11T18:52:01.230Z,17.50
2019-05-11T18:54:31.197Z,17.50
2019-05-11T18:57:01.160Z,17.50
2019-05-11T18:59:31.272Z,17.50
2019-05-11T19:02:01.317Z,17.50
2019-05-11T19:04:31.353Z,17.50
2019-05-11T19:07:13.013Z,17.40
2019-05-11T19:09:32.963Z,17.40
2019-05-11T19:12:02.944Z,17.30
2019-05-11T19:14:32.959Z,17.40
2019-05-11T19:17:02.946Z,17.40
2019-05-11T19:19:32.998Z,17.30
2019-05-11T19:22:03.224Z,17.30
2019-05-11T19:24:33.237Z,17.20
2019-05-11T19:27:03.306Z,17.10
2019-05-11T19:29:33.308Z,17.10
2019-05-11T19:32:03.258Z,17.10
2019-05-11T19:34:33.234Z,17.00
2019-05-11T19:37:03.177Z,17.00
2019-05-11T19:39:33.213Z,17.00
2019-05-11T19:42:03.280Z,17.00
2019-05-11T19:44:33.305Z,16.90
2019-05-11T19:47:03.423Z,16.90
2019-05-11T19:49:34.379Z,16.90
2019-05-11T19:52:04.402Z,16.90
2019-05-11T19:54:34.566Z,16.90
2019-05-11T19:57:04.568Z,16.90
2019-05-11T19:59:34.742Z,16.90
2019-05-11T20:02:05.002Z,16.70
2019-05-11T20:04:35.058Z,16.90
2019-05-11T20:07:05.063Z,16.90
2019-05-11T20:09:35.289Z,16.80
2019-05-11T20:12:05.518Z,16.80
2019-05-11T20:14:37.801Z,16.70
2019-05-11T20:17:08.981Z,16.70
2019-05-11T20:19:39.062Z,16.70
2019-05-11T20:22:09.213Z,16.60
2019-05-11T20:24:39.146Z,16.50
2019-05-11T20:27:09.267Z,16.50
2019-05-11T20:29:39.279Z,16.50
2019-05-11T20:32:09.485Z,16.40
2019-05-11T20:34:39.449Z,16.40
2019-05-11T20:37:10.714Z,16.60
2019-05-11T20:39:40.645Z,16.40
2019-05-11T20:42:10.664Z,16.20
2019-05-11T20:44:40.656Z,16.30
2019-05-11T20:47:10.706Z,16.20
2019-05-11T20:49:40.653Z,16.20
2019-05-11T20:52:10.690Z,16.20
2019-05-11T20:54:40.642Z,16.30
2019-05-11T20:57:10.778Z,16.30
2019-05-11T20:59:40.878Z,16.30
2019-05-11T21:02:10.931Z,16.30
2019-05-11T21:04:40.986Z,16.30
2019-05-11T21:07:11.075Z,16.40
2019-05-11T21:09:41.119Z,16.30
2019-05-11T21:12:11.356Z,16.20
2019-05-11T21:14:41.823Z,16.20
2019-05-11T21:17:12.067Z,16.20
2019-05-11T21:19:42.773Z,16.20
2019-05-11T21:22:13.118Z,16.20
2019-05-11T21:24:43.150Z,16.20
2019-05-11T21:27:13.630Z,16.20
2019-05-11T21:29:43.689Z,16.10
2019-05-11T21:32:13.951Z,16.10
2019-05-11T21:34:44.079Z,16.10
2019-05-11T21:37:14.090Z,16.20
2019-05-11T21:39:44.036Z,16.20
2019-05-11T21:42:14.098Z,16.20
2019-05-11T21:44:44.039Z,16.10
2019-05-11T21:47:14.063Z,16.20
2019-05-11T21:49:44.057Z,16.20
2019-05-11T21:52:14.099Z,16.10
2019-05-11T21:54:44.062Z,16.10
2019-05-11T21:57:14.971Z,16.10
2019-05-11T21:59:44.935Z,16.10
2019-05-11T22:02:14.871Z,16.10
2019-05-11T22:04:44.864Z,16.10
2019-05-11T22:07:14.885Z,16.10
2019-05-11T22:09:44.864Z,16.20
2019-05-11T22:12:15.794Z,16.10
2019-05-11T22:14:48.806Z,16.20
2019-05-11T22:17:18.386Z,16.20
2019-05-11T22:19:48.424Z,16.20
2019-05-11T22:22:24.388Z,16.20
2019-05-11T22:24:50.068Z,16.20
2019-05-11T22:27:20.076Z,16.10
2019-05-11T22:29:50.033Z,16.10
2019-05-11T22:32:20.100Z,16.10
2019-05-11T22:34:50.167Z,16.00
2019-05-11T22:37:20.123Z,16.00
2019-05-11T22:39:50.242Z,16.00
2019-05-11T22:42:20.275Z,16.00
2019-05-11T22:44:50.281Z,16.00
2019-05-11T22:47:20.297Z,16.00
2019-05-11T22:49:50.345Z,16.00
2019-05-11T22:52:32.989Z,16.00
2019-05-11T22:54:53.052Z,15.90
2019-05-11T22:57:23.004Z,15.80
2019-05-11T22:59:53.015Z,15.80
2019-05-11T23:02:23.038Z,15.80
2019-05-11T23:04:52.993Z,15.80
2019-05-11T23:07:23.029Z,15.80
2019-05-11T23:09:52.997Z,15.70
2019-05-11T23:12:23.035Z,15.70
2019-05-11T23:15:03.724Z,15.70
2019-05-11T23:17:33.707Z,15.60
2019-05-11T23:20:05.556Z,15.60
2019-05-11T23:22:53.378Z,15.50
2019-05-11T23:25:08.827Z,15.50
2019-05-11T23:27:39.589Z,15.40
2019-05-11T23:30:09.702Z,15.40
2019-05-11T23:32:39.751Z,15.30
2019-05-11T23:35:09.836Z,15.30
2019-05-11T23:37:42.532Z,15.20
2019-05-11T23:40:12.282Z,15.10
2019-05-11T23:42:42.415Z,15.10
2019-05-11T23:45:12.564Z,15.00
2019-05-11T23:47:42.565Z,15.00
2019-05-11T23:50:13.773Z,14.90
2019-05-11T23:52:44.695Z,14.80
2019-05-11T23:55:14.891Z,14.80
2019-05-11T23:57:48.036Z,14.70
